Mc Carr, Kentucky
Current Conditions -  °F | °C
As of 5:35 PM on Sunday 23 Nov 2014 (Local Time) from KPBX Reporting Station
Broken Clouds Broken Clouds  
Wind Chill: 57°   Ceiling: 12000
Heat Index: 57°   Visibility: 10mi
Dew Point: 48°   Wind: 10mph
Humidity: 73%   Direction: 150°SSE
Pressure: 29.67"   Gusts: 21mph
Location:  37.6155°N, 82.1695°W
Report Text: KPBX 232235Z AUTO 15009G18KT 10SM SCT075 SCT100 BKN120 14/09 A2967 RMK AO2 T01380091
Loading
Personal Weather Stations






























Interactive Weather Map New forecast layout! Learn more

10-Day Weather Forecast

Advertisements
Track Severe Weather on mobile